createdAt,value
2019-02-02T00:02:06.273Z,16.00
2019-02-02T00:04:36.351Z,17.40
2019-02-02T00:07:05.449Z,16.43
2019-02-02T00:09:34.444Z,16.43
2019-02-02T00:12:03.347Z,16.23
2019-02-02T00:14:32.463Z,16.33
2019-02-02T00:17:01.713Z,18.23
2019-02-02T00:19:30.577Z,16.73
2019-02-02T00:22:01.527Z,16.73
2019-02-02T00:24:30.425Z,17.10
2019-02-02T00:26:59.222Z,17.13
2019-02-02T00:29:28.782Z,17.60
2019-02-02T00:31:57.791Z,17.27
2019-02-02T00:34:28.182Z,16.97
2019-02-02T00:36:59.250Z,17.37
2019-02-02T00:39:28.975Z,16.47
2019-02-02T00:41:58.058Z,16.60
2019-02-02T00:44:27.167Z,17.57
2019-02-02T00:46:56.279Z,18.20
2019-02-02T00:49:25.406Z,18.40
2019-02-02T00:51:54.193Z,17.30
2019-02-02T00:54:23.138Z,17.92
2019-02-02T00:56:51.922Z,16.60
2019-02-02T00:59:20.778Z,17.33
2019-02-02T01:01:50.029Z,17.60
2019-02-02T01:04:18.963Z,17.77
2019-02-02T01:06:47.787Z,17.40
2019-02-02T01:09:22.418Z,17.10
2019-02-02T01:11:51.781Z,17.87
2019-02-02T01:14:20.926Z,17.20
2019-02-02T01:16:49.818Z,17.83
2019-02-02T01:19:18.614Z,18.30
2019-02-02T01:21:47.545Z,17.70
2019-02-02T01:24:16.501Z,18.07
2019-02-02T01:26:45.279Z,17.50
2019-02-02T01:29:14.346Z,18.17
2019-02-02T01:31:43.194Z,19.33
2019-02-02T01:34:12.186Z,18.73
2019-02-02T01:36:41.136Z,19.07
2019-02-02T01:39:09.930Z,19.33
2019-02-02T01:41:39.071Z,18.23
2019-02-02T01:44:08.024Z,19.40
2019-02-02T01:46:36.741Z,18.00
2019-02-02T01:49:05.709Z,18.33
2019-02-02T01:51:34.531Z,19.53
2019-02-02T01:54:03.452Z,19.23
2019-02-02T01:56:32.433Z,20.03
2019-02-02T01:59:01.815Z,19.87
2019-02-02T02:01:30.750Z,20.57
2019-02-02T02:04:00.299Z,19.83
2019-02-02T02:06:30.230Z,21.27
2019-02-02T02:08:59.782Z,19.90
2019-02-02T02:11:28.899Z,21.33
2019-02-02T02:13:57.658Z,19.57
2019-02-02T02:16:26.575Z,20.60
2019-02-02T02:18:55.436Z,21.10
2019-02-02T02:21:24.355Z,20.37
2019-02-02T02:23:53.231Z,20.10
2019-02-02T02:26:22.059Z,19.63
2019-02-02T02:28:50.864Z,20.63
2019-02-02T02:31:20.120Z,21.30
2019-02-02T02:33:49.149Z,20.77
2019-02-02T02:36:18.194Z,19.90
2019-02-02T02:38:46.985Z,21.07
2019-02-02T02:41:15.770Z,20.10
2019-02-02T02:43:44.602Z,18.83
2019-02-02T02:46:13.485Z,20.40
2019-02-02T02:48:42.313Z,20.90
2019-02-02T02:51:11.495Z,20.77
2019-02-02T02:53:40.387Z,20.07
2019-02-02T02:56:09.170Z,19.50
2019-02-02T02:58:41.634Z,19.10
2019-02-02T03:01:08.538Z,19.93
2019-02-02T03:03:37.664Z,20.33
2019-02-02T03:06:08.268Z,20.07
2019-02-02T03:08:37.650Z,20.67
2019-02-02T03:11:06.448Z,20.00
2019-02-02T03:13:35.289Z,21.00
2019-02-02T03:16:04.068Z,20.47
2019-02-02T03:18:32.900Z,20.10
2019-02-02T03:21:08.013Z,20.13
2019-02-02T03:23:37.027Z,19.73
2019-02-02T03:26:07.532Z,19.37
2019-02-02T03:28:36.367Z,19.20
2019-02-02T03:31:05.485Z,19.00
2019-02-02T03:33:34.485Z,19.47
2019-02-02T03:36:04.012Z,19.77
2019-02-02T03:38:32.838Z,19.50
2019-02-02T03:41:02.101Z,18.63
2019-02-02T03:43:30.900Z,19.33
2019-02-02T03:46:00.015Z,19.20
2019-02-02T03:48:28.800Z,19.63
2019-02-02T03:50:57.629Z,19.60
2019-02-02T03:53:27.421Z,18.93
2019-02-02T03:55:56.280Z,20.10
2019-02-02T03:58:25.285Z,18.73
2019-02-02T04:00:54.244Z,18.23
2019-02-02T04:03:23.064Z,18.97
2019-02-02T04:05:52.328Z,18.60
2019-02-02T04:08:21.216Z,17.97
2019-02-02T04:10:50.120Z,18.37
2019-02-02T04:13:19.106Z,18.70
2019-02-02T04:15:48.122Z,18.60
2019-02-02T04:18:17.108Z,18.70
2019-02-02T04:20:45.919Z,18.43
2019-02-02T04:23:15.173Z,17.97
2019-02-02T04:25:43.968Z,18.13
2019-02-02T04:28:14.902Z,18.67
2019-02-02T04:30:43.797Z,18.93
2019-02-02T04:33:13.217Z,18.33
2019-02-02T04:35:42.014Z,17.67
2019-02-02T04:38:11.051Z,19.13
2019-02-02T04:40:39.974Z,17.93
2019-02-02T04:43:08.814Z,17.80
2019-02-02T04:45:37.664Z,18.17
2019-02-02T04:48:06.449Z,17.53
2019-02-02T04:50:35.255Z,17.90
2019-02-02T04:53:04.144Z,18.03
2019-02-02T04:55:32.973Z,17.85
2019-02-02T04:58:03.560Z,17.50
2019-02-02T05:00:32.333Z,18.30
2019-02-02T05:03:01.156Z,16.50
2019-02-02T05:05:30.024Z,17.90
2019-02-02T05:07:59.544Z,17.50
2019-02-02T05:10:28.850Z,16.77
2019-02-02T05:12:57.839Z,16.87
2019-02-02T05:15:26.854Z,17.53
2019-02-02T05:17:55.609Z,16.73
2019-02-02T05:20:24.605Z,17.63
2019-02-02T05:22:53.413Z,17.97
2019-02-02T05:25:22.254Z,17.57
2019-02-02T05:27:51.011Z,17.83
2019-02-02T05:30:21.515Z,18.57
2019-02-02T05:32:50.383Z,17.77
2019-02-02T05:35:19.672Z,18.70
2019-02-02T05:37:48.660Z,18.83
2019-02-02T05:40:18.092Z,17.70
2019-02-02T05:42:46.916Z,18.03
2019-02-02T05:45:16.702Z,17.93
2019-02-02T05:47:45.476Z,18.07
2019-02-02T05:50:15.538Z,17.73
2019-02-02T05:52:44.430Z,18.30
2019-02-02T05:55:13.671Z,18.80
2019-02-02T05:57:42.636Z,17.53
2019-02-02T06:00:15.330Z,17.53
2019-02-02T06:02:44.119Z,18.43
2019-02-02T06:05:12.911Z,18.30
2019-02-02T06:07:43.025Z,17.50
2019-02-02T06:10:15.536Z,18.02
2019-02-02T06:12:44.355Z,18.80
2019-02-02T06:15:13.512Z,18.83
2019-02-02T06:17:42.380Z,18.57
2019-02-02T06:20:12.551Z,18.50
2019-02-02T06:22:41.804Z,18.90
2019-02-02T06:25:10.994Z,19.70
2019-02-02T06:27:39.942Z,19.73
2019-02-02T06:30:11.047Z,19.50
2019-02-02T06:32:39.841Z,19.23
2019-02-02T06:35:09.813Z,19.77
2019-02-02T06:37:38.707Z,20.00
2019-02-02T06:40:08.217Z,19.70
2019-02-02T06:42:37.436Z,20.63
2019-02-02T06:45:06.958Z,20.07
2019-02-02T06:47:35.919Z,21.13
2019-02-02T06:50:06.000Z,21.33
2019-02-02T06:52:34.792Z,22.10
2019-02-02T06:55:03.855Z,21.20
2019-02-02T06:57:32.811Z,22.10
2019-02-02T07:00:01.823Z,22.90
2019-02-02T07:02:30.705Z,21.63
2019-02-02T07:04:59.791Z,22.67
2019-02-02T07:07:28.700Z,22.23
2019-02-02T07:09:57.793Z,22.53
2019-02-02T07:12:26.582Z,21.97
2019-02-02T07:14:55.586Z,22.60
2019-02-02T07:17:24.558Z,23.07
2019-02-02T07:19:53.438Z,23.90
2019-02-02T07:22:22.268Z,23.07
2019-02-02T07:24:51.642Z,24.37
2019-02-02T07:27:20.460Z,24.13
2019-02-02T07:29:49.560Z,23.20
2019-02-02T07:32:18.767Z,23.83
2019-02-02T07:34:49.404Z,24.33
2019-02-02T07:37:18.320Z,23.37
2019-02-02T07:39:47.319Z,24.23
2019-02-02T07:42:17.288Z,24.43
2019-02-02T07:44:46.374Z,24.43
2019-02-02T07:47:15.183Z,25.53
2019-02-02T07:49:44.413Z,26.10
2019-02-02T07:52:14.228Z,25.60
2019-02-02T07:54:43.186Z,26.23
2019-02-02T07:57:12.166Z,24.93
2019-02-02T07:59:41.044Z,26.57
2019-02-02T08:02:10.088Z,25.40
2019-02-02T08:04:39.547Z,24.43
2019-02-02T08:07:08.751Z,25.93
2019-02-02T08:09:37.810Z,27.57
2019-02-02T08:12:06.688Z,26.33
2019-02-02T08:14:35.611Z,26.27
2019-02-02T08:17:04.521Z,27.10
2019-02-02T08:19:33.707Z,27.20
2019-02-02T08:22:02.478Z,27.03
2019-02-02T08:24:31.443Z,27.53
2019-02-02T08:27:00.321Z,26.73
2019-02-02T08:29:29.277Z,28.93
2019-02-02T08:31:58.154Z,28.47
2019-02-02T08:34:27.080Z,27.57
2019-02-02T08:36:55.885Z,29.30
2019-02-02T08:39:29.293Z,27.93
2019-02-02T08:41:55.815Z,28.47
2019-02-02T08:44:24.626Z,29.33
2019-02-02T08:46:53.578Z,29.70
2019-02-02T08:49:22.415Z,29.83
2019-02-02T08:51:51.520Z,28.97
2019-02-02T08:54:21.155Z,29.10
2019-02-02T08:56:50.254Z,28.97
2019-02-02T08:59:19.351Z,30.50
2019-02-02T09:01:48.440Z,28.03
2019-02-02T09:04:17.889Z,29.77
2019-02-02T09:06:47.085Z,29.90
2019-02-02T09:09:15.907Z,30.90
2019-02-02T09:11:45.303Z,28.77
2019-02-02T09:14:14.292Z,28.53
2019-02-02T09:16:43.184Z,29.77
2019-02-02T09:19:12.013Z,28.73
2019-02-02T09:21:40.857Z,30.10
2019-02-02T09:24:09.767Z,29.00
2019-02-02T09:26:38.723Z,28.93
2019-02-02T09:29:10.419Z,31.43
2019-02-02T09:31:38.286Z,30.80
2019-02-02T09:34:07.166Z,29.67
2019-02-02T09:36:36.020Z,30.67
2019-02-02T09:39:06.814Z,30.47
2019-02-02T09:41:35.810Z,28.70
2019-02-02T09:44:05.203Z,29.13
2019-02-02T09:46:34.095Z,29.47
2019-02-02T09:49:03.252Z,29.53
2019-02-02T09:51:32.424Z,28.27
2019-02-02T09:54:02.054Z,29.73
2019-02-02T09:56:31.412Z,30.23
2019-02-02T09:59:00.303Z,28.90
2019-02-02T10:01:29.378Z,30.80
2019-02-02T10:03:58.270Z,29.87
2019-02-02T10:06:27.298Z,31.57
2019-02-02T10:08:56.137Z,31.53
2019-02-02T10:11:25.838Z,30.67
2019-02-02T10:13:54.690Z,30.70
2019-02-02T10:16:23.563Z,29.77
2019-02-02T10:18:53.401Z,30.33
2019-02-02T10:21:22.227Z,32.33
2019-02-02T10:23:51.064Z,30.47
2019-02-02T10:26:20.177Z,31.40
2019-02-02T10:28:49.359Z,31.30
2019-02-02T10:31:18.459Z,31.07
2019-02-02T10:33:47.454Z,31.00
2019-02-02T10:36:16.286Z,32.50
2019-02-02T10:38:45.211Z,30.60
2019-02-02T10:41:14.034Z,33.30
2019-02-02T10:43:42.968Z,32.93
2019-02-02T10:46:12.016Z,34.00
2019-02-02T10:48:41.662Z,32.97
2019-02-02T10:51:10.637Z,33.37
2019-02-02T10:53:39.463Z,33.17
2019-02-02T10:56:08.295Z,32.47
2019-02-02T10:58:37.154Z,33.93
2019-02-02T11:01:12.658Z,31.57
2019-02-02T11:03:41.429Z,32.50
2019-02-02T11:06:10.379Z,32.53
2019-02-02T11:08:39.226Z,33.00
2019-02-02T11:11:08.141Z,33.03
2019-02-02T11:13:36.986Z,32.63
2019-02-02T11:16:08.424Z,34.97
2019-02-02T11:18:36.444Z,33.75
2019-02-02T11:21:05.368Z,34.03
2019-02-02T11:23:34.382Z,32.83
2019-02-02T11:26:03.520Z,33.63
2019-02-02T11:28:32.508Z,34.87
2019-02-02T11:31:01.321Z,34.67
2019-02-02T11:33:30.488Z,33.07
2019-02-02T11:36:00.137Z,34.23
2019-02-02T11:38:28.936Z,33.93
2019-02-02T11:40:59.865Z,35.30
2019-02-02T11:43:28.815Z,34.67
2019-02-02T11:45:57.590Z,33.67
2019-02-02T11:48:26.419Z,32.93
2019-02-02T11:50:56.037Z,36.53
2019-02-02T11:53:24.877Z,33.87
2019-02-02T11:55:53.905Z,33.73
2019-02-02T11:58:22.796Z,34.37
2019-02-02T12:00:51.608Z,33.43
2019-02-02T12:03:20.558Z,32.50
2019-02-02T12:05:49.606Z,33.37
2019-02-02T12:08:18.765Z,35.37
2019-02-02T12:10:47.574Z,32.50
2019-02-02T12:13:16.405Z,33.27
2019-02-02T12:15:47.275Z,34.23
2019-02-02T12:18:16.331Z,32.77
2019-02-02T12:20:45.234Z,33.27
2019-02-02T12:23:14.025Z,33.17
2019-02-02T12:25:42.952Z,33.60
2019-02-02T12:28:11.778Z,32.87
2019-02-02T12:30:41.376Z,33.77
2019-02-02T12:33:10.198Z,34.17
2019-02-02T12:35:39.190Z,34.53
2019-02-02T12:38:08.774Z,32.33
2019-02-02T12:40:37.762Z,35.87
2019-02-02T12:43:06.566Z,33.00
2019-02-02T12:45:37.046Z,33.77
2019-02-02T12:48:05.982Z,35.43
2019-02-02T12:50:34.970Z,34.77
2019-02-02T12:53:04.128Z,35.50
2019-02-02T12:55:34.892Z,34.17
2019-02-02T12:58:04.669Z,35.13
2019-02-02T13:00:34.230Z,35.70
2019-02-02T13:03:03.118Z,34.93
2019-02-02T13:05:32.062Z,33.67
2019-02-02T13:08:01.003Z,34.40
2019-02-02T13:10:30.242Z,34.40
2019-02-02T13:12:59.011Z,36.57
2019-02-02T13:15:27.849Z,34.93
2019-02-02T13:17:56.685Z,34.93
2019-02-02T13:20:25.748Z,36.27
2019-02-02T13:22:54.534Z,35.43
2019-02-02T13:25:23.995Z,35.27
2019-02-02T13:27:53.121Z,34.70
2019-02-02T13:30:23.387Z,36.73
2019-02-02T13:32:52.559Z,36.33
2019-02-02T13:35:21.864Z,36.70
2019-02-02T13:37:50.801Z,36.27
2019-02-02T13:40:20.471Z,36.37
2019-02-02T13:42:49.322Z,36.97
2019-02-02T13:45:25.939Z,36.40
2019-02-02T13:47:54.759Z,35.90
2019-02-02T13:50:23.699Z,36.80
2019-02-02T13:52:52.848Z,38.33
2019-02-02T13:55:22.992Z,38.40
2019-02-02T13:57:51.801Z,40.63
2019-02-02T14:00:25.222Z,36.67
2019-02-02T14:03:02.494Z,36.93
2019-02-02T14:05:24.564Z,37.73
2019-02-02T14:07:53.689Z,38.20
2019-02-02T14:10:24.076Z,38.63
2019-02-02T14:12:53.072Z,39.63
2019-02-02T14:15:21.863Z,39.60
2019-02-02T14:17:50.836Z,37.70
2019-02-02T14:20:19.793Z,38.27
2019-02-02T14:22:49.426Z,38.03
2019-02-02T14:25:18.460Z,40.27
2019-02-02T14:27:47.522Z,38.93
2019-02-02T14:30:17.317Z,38.23
2019-02-02T14:32:46.228Z,38.73
2019-02-02T14:35:15.730Z,38.57
2019-02-02T14:37:44.578Z,39.00
2019-02-02T14:40:14.157Z,39.50
2019-02-02T14:42:42.970Z,39.03
2019-02-02T14:45:13.346Z,38.63
2019-02-02T14:47:42.325Z,40.23
2019-02-02T14:50:12.323Z,39.63
2019-02-02T14:52:41.144Z,40.17
2019-02-02T14:55:11.869Z,42.07
2019-02-02T14:57:41.104Z,42.23
2019-02-02T15:00:11.859Z,42.33
2019-02-02T15:02:41.472Z,40.63
2019-02-02T15:05:10.656Z,41.63
2019-02-02T15:07:39.458Z,41.57
2019-02-02T15:10:09.366Z,40.57
2019-02-02T15:12:38.259Z,42.50
2019-02-02T15:15:08.231Z,42.23
2019-02-02T15:17:37.052Z,41.20
2019-02-02T15:20:08.692Z,41.37
2019-02-02T15:22:37.807Z,43.10
2019-02-02T15:25:06.889Z,41.17
2019-02-02T15:27:35.705Z,41.83
2019-02-02T15:30:05.423Z,41.90
2019-02-02T15:32:34.242Z,42.73
2019-02-02T15:35:03.200Z,41.85
2019-02-02T15:37:32.141Z,41.37
2019-02-02T15:40:01.253Z,42.43
2019-02-02T15:42:30.329Z,42.77
2019-02-02T15:44:59.292Z,44.20
2019-02-02T15:47:28.315Z,42.53
2019-02-02T15:49:57.281Z,45.40
2019-02-02T15:52:26.207Z,42.43
2019-02-02T15:54:55.095Z,43.53
2019-02-02T15:57:24.128Z,44.17
2019-02-02T15:59:53.333Z,42.77
2019-02-02T16:02:22.259Z,42.67
2019-02-02T16:04:51.106Z,45.27
2019-02-02T16:07:20.147Z,44.07
2019-02-02T16:09:49.043Z,44.10
2019-02-02T16:12:18.127Z,44.07
2019-02-02T16:14:46.980Z,43.07
2019-02-02T16:17:15.905Z,45.47
2019-02-02T16:19:45.079Z,45.12
2019-02-02T16:22:14.394Z,46.60
2019-02-02T16:24:45.377Z,45.87
2019-02-02T16:27:14.560Z,43.10
2019-02-02T16:29:43.471Z,43.53
2019-02-02T16:32:12.788Z,44.63
2019-02-02T16:34:41.651Z,44.57
2019-02-02T16:37:10.505Z,43.60
2019-02-02T16:39:39.349Z,43.87
2019-02-02T16:42:08.192Z,45.70
2019-02-02T16:44:37.118Z,45.63
2019-02-02T16:47:07.997Z,44.87
2019-02-02T16:49:36.829Z,46.53
2019-02-02T16:52:05.965Z,46.80
2019-02-02T16:54:35.072Z,46.07
2019-02-02T16:57:04.108Z,44.70
2019-02-02T16:59:32.932Z,44.53
2019-02-02T17:02:01.923Z,46.43
2019-02-02T17:04:30.767Z,46.57
2019-02-02T17:06:59.818Z,46.53
2019-02-02T17:09:28.931Z,45.40
2019-02-02T17:11:57.788Z,45.55
2019-02-02T17:14:26.688Z,46.00
2019-02-02T17:16:55.472Z,45.93
2019-02-02T17:19:24.312Z,46.77
2019-02-02T17:21:53.118Z,46.07
2019-02-02T17:24:22.179Z,45.17
2019-02-02T17:26:51.806Z,45.73
2019-02-02T17:29:20.778Z,46.03
2019-02-02T17:31:49.605Z,45.53
2019-02-02T17:34:26.869Z,45.13
2019-02-02T17:36:49.337Z,47.27
2019-02-02T17:39:18.276Z,45.83
2019-02-02T17:41:47.280Z,46.80
2019-02-02T17:44:16.221Z,46.97
2019-02-02T17:46:45.063Z,46.67
2019-02-02T17:49:14.130Z,46.60
2019-02-02T17:51:42.906Z,47.17
2019-02-02T17:54:13.503Z,45.57
2019-02-02T17:56:42.519Z,45.97
2019-02-02T17:59:11.511Z,47.57
2019-02-02T18:01:40.739Z,46.47
2019-02-02T18:04:09.617Z,45.27
2019-02-02T18:06:38.671Z,45.37
2019-02-02T18:09:08.329Z,45.87
2019-02-02T18:11:37.259Z,44.07
2019-02-02T18:14:06.228Z,46.37
2019-02-02T18:16:35.333Z,46.63
2019-02-02T18:19:04.183Z,45.03
2019-02-02T18:21:33.059Z,44.60
2019-02-02T18:24:02.038Z,46.97
2019-02-02T18:26:30.913Z,44.97
2019-02-02T18:28:59.804Z,46.17
2019-02-02T18:31:28.880Z,44.37
2019-02-02T18:33:57.687Z,45.20
2019-02-02T18:36:26.578Z,46.80
2019-02-02T18:38:55.438Z,43.77
2019-02-02T18:41:25.020Z,43.90
2019-02-02T18:43:54.596Z,45.40
2019-02-02T18:46:23.537Z,42.63
2019-02-02T18:48:53.089Z,45.40
2019-02-02T18:51:21.992Z,44.50
2019-02-02T18:53:51.003Z,42.63
2019-02-02T18:56:20.125Z,44.70
2019-02-02T18:58:49.180Z,43.77
2019-02-02T19:01:18.399Z,43.57
2019-02-02T19:03:47.301Z,44.43
2019-02-02T19:06:16.260Z,43.57
2019-02-02T19:08:45.135Z,44.23
2019-02-02T19:11:14.129Z,43.30
2019-02-02T19:13:43.306Z,44.43
2019-02-02T19:16:12.274Z,43.57
2019-02-02T19:18:41.143Z,42.83
2019-02-02T19:21:10.064Z,44.23
2019-02-02T19:23:38.959Z,44.07
2019-02-02T19:26:09.991Z,45.97
2019-02-02T19:28:40.234Z,43.77
2019-02-02T19:31:09.246Z,45.63
2019-02-02T19:33:38.283Z,45.20
2019-02-02T19:36:07.127Z,45.13
2019-02-02T19:38:35.995Z,44.70
2019-02-02T19:41:04.824Z,44.30
2019-02-02T19:43:33.670Z,46.83
2019-02-02T19:46:02.719Z,43.33
2019-02-02T19:48:31.570Z,42.93
2019-02-02T19:51:00.375Z,43.90
2019-02-02T19:53:31.832Z,41.97
2019-02-02T19:56:00.006Z,41.53
2019-02-02T19:58:28.843Z,40.30
2019-02-02T20:00:58.044Z,42.83
2019-02-02T20:03:28.548Z,43.40
2019-02-02T20:05:58.279Z,41.33
2019-02-02T20:08:27.074Z,41.30
2019-02-02T20:10:56.579Z,42.20
2019-02-02T20:13:25.465Z,43.57
2019-02-02T20:15:54.531Z,43.37
2019-02-02T20:18:25.105Z,42.90
2019-02-02T20:20:54.215Z,43.87
2019-02-02T20:23:23.147Z,44.60
2019-02-02T20:25:52.149Z,45.17
2019-02-02T20:28:21.400Z,45.00
2019-02-02T20:30:50.377Z,45.93
2019-02-02T20:33:20.215Z,45.00
2019-02-02T20:35:51.826Z,45.37
2019-02-02T20:38:21.411Z,47.23
2019-02-02T20:40:50.366Z,47.80
2019-02-02T20:43:19.194Z,46.57
2019-02-02T20:45:48.123Z,45.77
2019-02-02T20:48:17.027Z,46.83
2019-02-02T20:50:46.621Z,45.40
2019-02-02T20:53:15.436Z,48.03
2019-02-02T20:55:45.146Z,45.70
2019-02-02T20:58:14.216Z,46.03
2019-02-02T21:00:43.355Z,45.47
2019-02-02T21:03:12.462Z,43.27
2019-02-02T21:05:51.927Z,45.73
2019-02-02T21:08:13.802Z,46.60
2019-02-02T21:10:44.640Z,46.70
2019-02-02T21:13:13.365Z,46.87
2019-02-02T21:15:42.288Z,47.20
2019-02-02T21:18:11.987Z,45.33
2019-02-02T21:20:41.025Z,45.73
2019-02-02T21:23:09.896Z,47.73
2019-02-02T21:25:39.241Z,45.13
2019-02-02T21:28:08.416Z,46.07
2019-02-02T21:30:38.010Z,47.03
2019-02-02T21:33:08.023Z,47.03
2019-02-02T21:35:36.870Z,47.70
2019-02-02T21:38:05.888Z,46.50
2019-02-02T21:40:35.134Z,45.97
2019-02-02T21:43:05.921Z,48.27
2019-02-02T21:45:35.437Z,48.43
2019-02-02T21:48:04.654Z,47.33
2019-02-02T21:50:33.565Z,48.80
2019-02-02T21:53:02.426Z,48.27
2019-02-02T21:55:31.450Z,48.97
2019-02-02T21:58:00.490Z,48.17
2019-02-02T22:00:30.467Z,48.43
2019-02-02T22:03:01.547Z,49.33
2019-02-02T22:05:30.486Z,49.50
2019-02-02T22:07:59.267Z,50.43
2019-02-02T22:10:28.450Z,49.50
2019-02-02T22:12:57.705Z,49.73
2019-02-02T22:15:26.725Z,51.03
2019-02-02T22:17:55.496Z,49.13
2019-02-02T22:20:24.433Z,51.60
2019-02-02T22:22:53.326Z,53.60
2019-02-02T22:25:23.351Z,50.67
2019-02-02T22:27:52.345Z,51.77
2019-02-02T22:30:22.483Z,50.53
2019-02-02T22:32:51.379Z,50.60
2019-02-02T22:35:20.253Z,49.43
2019-02-02T22:37:49.430Z,50.30
2019-02-02T22:40:19.663Z,50.53
2019-02-02T22:42:49.131Z,50.77
2019-02-02T22:45:18.567Z,50.40
2019-02-02T22:47:47.533Z,50.80
2019-02-02T22:50:17.740Z,51.70
2019-02-02T22:52:46.866Z,51.53
2019-02-02T22:55:15.933Z,52.03
2019-02-02T22:57:44.894Z,50.77
2019-02-02T23:00:58.111Z,51.90
2019-02-02T23:03:28.833Z,49.30
2019-02-02T23:06:04.053Z,49.17
2019-02-02T23:08:55.047Z,50.47
2019-02-02T23:11:55.376Z,50.93
2019-02-02T23:14:46.627Z,51.73
2019-02-02T23:17:15.628Z,51.57
2019-02-02T23:19:44.603Z,49.97
2019-02-02T23:22:13.595Z,51.53
2019-02-02T23:24:42.416Z,48.43
2019-02-02T23:27:11.292Z,49.47
2019-02-02T23:29:40.924Z,50.50
2019-02-02T23:32:10.748Z,48.83
2019-02-02T23:34:39.546Z,48.43
2019-02-02T23:37:08.576Z,46.47
2019-02-02T23:39:37.602Z,50.37
2019-02-02T23:42:06.482Z,47.80
2019-02-02T23:44:35.316Z,51.60
2019-02-02T23:47:04.150Z,50.33
2019-02-02T23:49:34.715Z,47.97
2019-02-02T23:52:04.326Z,48.73
2019-02-02T23:54:33.172Z,49.00
2019-02-02T23:57:01.979Z,47.63
2019-02-02T23:59:30.984Z,49.83
